sensor_id;sensor_type;location;lat;lon;timestamp;pressure;altitude;pressure_sealevel;temperature;humidity
78892;BME280;68368;51.728;5.248;2023-06-14T00:01:02;101437.73;;;18.12;41.00
78892;BME280;68368;51.728;5.248;2023-06-14T00:03:07;101435.00;;;18.08;40.90
78892;BME280;68368;51.728;5.248;2023-06-14T00:05:09;101441.10;;;18.08;40.68
78892;BME280;68368;51.728;5.248;2023-06-14T00:07:13;101439.17;;;18.06;40.59
78892;BME280;68368;51.728;5.248;2023-06-14T00:09:15;101441.04;;;18.04;40.72
78892;BME280;68368;51.728;5.248;2023-06-14T00:11:17;101442.01;;;18.02;40.79
78892;BME280;68368;51.728;5.248;2023-06-14T00:13:19;101441.41;;;17.98;41.13
78892;BME280;68368;51.728;5.248;2023-06-14T00:15:21;101443.98;;;17.96;41.22
78892;BME280;68368;51.728;5.248;2023-06-14T00:17:23;101442.41;;;17.94;41.18
78892;BME280;68368;51.728;5.248;2023-06-14T00:19:25;101441.95;;;17.92;41.39
78892;BME280;68368;51.728;5.248;2023-06-14T00:21:29;101441.29;;;17.91;41.61
78892;BME280;68368;51.728;5.248;2023-06-14T00:23:31;101445.13;;;17.88;41.72
78892;BME280;68368;51.728;5.248;2023-06-14T00:25:33;101443.77;;;17.85;42.02
78892;BME280;68368;51.728;5.248;2023-06-14T00:27:35;101444.16;;;17.84;41.95
78892;BME280;68368;51.728;5.248;2023-06-14T00:29:37;101449.96;;;17.82;42.09
78892;BME280;68368;51.728;5.248;2023-06-14T00:31:39;101447.00;;;17.80;42.33
78892;BME280;68368;51.728;5.248;2023-06-14T00:33:40;101450.66;;;17.77;42.41
78892;BME280;68368;51.728;5.248;2023-06-14T00:35:43;101447.37;;;17.72;42.61
78892;BME280;68368;51.728;5.248;2023-06-14T00:37:45;101448.41;;;17.68;43.01
78892;BME280;68368;51.728;5.248;2023-06-14T00:39:46;101447.42;;;17.64;43.12
78892;BME280;68368;51.728;5.248;2023-06-14T00:41:48;101446.82;;;17.61;43.05
78892;BME280;68368;51.728;5.248;2023-06-14T00:43:51;101444.27;;;17.56;43.18
78892;BME280;68368;51.728;5.248;2023-06-14T00:45:53;101446.05;;;17.51;43.41
78892;BME280;68368;51.728;5.248;2023-06-14T00:47:55;101450.13;;;17.46;43.54
78892;BME280;68368;51.728;5.248;2023-06-14T00:49:58;101452.42;;;17.41;43.76
78892;BME280;68368;51.728;5.248;2023-06-14T00:52:03;101454.35;;;17.36;43.79
78892;BME280;68368;51.728;5.248;2023-06-14T00:54:05;101453.45;;;17.30;43.80
78892;BME280;68368;51.728;5.248;2023-06-14T00:56:07;101449.83;;;17.25;43.99
78892;BME280;68368;51.728;5.248;2023-06-14T00:58:10;101448.80;;;17.23;44.24
78892;BME280;68368;51.728;5.248;2023-06-14T01:00:14;101446.72;;;17.20;44.21
78892;BME280;68368;51.728;5.248;2023-06-14T01:02:16;101446.46;;;17.16;44.39
78892;BME280;68368;51.728;5.248;2023-06-14T01:04:21;101440.88;;;17.11;44.65
78892;BME280;68368;51.728;5.248;2023-06-14T01:06:29;101441.69;;;17.08;44.49
78892;BME280;68368;51.728;5.248;2023-06-14T01:08:41;101442.66;;;17.05;44.47
78892;BME280;68368;51.728;5.248;2023-06-14T01:10:46;101451.23;;;17.00;44.75
78892;BME280;68368;51.728;5.248;2023-06-14T01:12:56;101451.36;;;16.95;44.67
78892;BME280;68368;51.728;5.248;2023-06-14T01:15:02;101450.77;;;16.90;44.97
78892;BME280;68368;51.728;5.248;2023-06-14T01:17:08;101454.30;;;16.86;45.32
78892;BME280;68368;51.728;5.248;2023-06-14T01:19:12;101453.36;;;16.80;45.37
78892;BME280;68368;51.728;5.248;2023-06-14T01:21:21;101448.98;;;16.76;45.43
78892;BME280;68368;51.728;5.248;2023-06-14T01:23:23;101449.36;;;16.74;45.45
78892;BME280;68368;51.728;5.248;2023-06-14T01:25:28;101448.74;;;16.71;45.50
78892;BME280;68368;51.728;5.248;2023-06-14T01:27:30;101449.87;;;16.69;45.65
78892;BME280;68368;51.728;5.248;2023-06-14T01:29:33;101447.23;;;16.67;45.76
78892;BME280;68368;51.728;5.248;2023-06-14T01:31:35;101455.55;;;16.63;45.93
78892;BME280;68368;51.728;5.248;2023-06-14T01:33:37;101448.69;;;16.59;46.09
78892;BME280;68368;51.728;5.248;2023-06-14T01:35:40;101448.17;;;16.58;46.18
78892;BME280;68368;51.728;5.248;2023-06-14T01:37:43;101451.28;;;16.55;46.08
78892;BME280;68368;51.728;5.248;2023-06-14T01:39:46;101451.54;;;16.52;46.25
78892;BME280;68368;51.728;5.248;2023-06-14T01:41:49;101450.19;;;16.49;46.35
78892;BME280;68368;51.728;5.248;2023-06-14T01:43:52;101451.70;;;16.46;46.67
78892;BME280;68368;51.728;5.248;2023-06-14T01:45:57;101451.77;;;16.42;46.71
78892;BME280;68368;51.728;5.248;2023-06-14T01:48:00;101450.95;;;16.39;46.85
78892;BME280;68368;51.728;5.248;2023-06-14T01:50:04;101451.75;;;16.36;46.78
78892;BME280;68368;51.728;5.248;2023-06-14T01:52:07;101451.29;;;16.33;47.16
78892;BME280;68368;51.728;5.248;2023-06-14T01:54:09;101450.63;;;16.30;47.37
78892;BME280;68368;51.728;5.248;2023-06-14T01:56:11;101450.16;;;16.27;47.18
78892;BME280;68368;51.728;5.248;2023-06-14T01:58:13;101446.81;;;16.25;47.53
78892;BME280;68368;51.728;5.248;2023-06-14T02:00:16;101445.78;;;16.23;47.29
78892;BME280;68368;51.728;5.248;2023-06-14T02:02:19;101446.56;;;16.21;47.54
78892;BME280;68368;51.728;5.248;2023-06-14T02:04:22;101446.98;;;16.18;47.86
78892;BME280;68368;51.728;5.248;2023-06-14T02:06:26;101450.27;;;16.15;48.12
78892;BME280;68368;51.728;5.248;2023-06-14T02:08:29;101446.98;;;16.11;48.27
78892;BME280;68368;51.728;5.248;2023-06-14T02:10:31;101448.31;;;16.08;48.20
78892;BME280;68368;51.728;5.248;2023-06-14T02:12:35;101445.13;;;16.06;48.15
78892;BME280;68368;51.728;5.248;2023-06-14T02:14:40;101453.73;;;16.04;48.52
78892;BME280;68368;51.728;5.248;2023-06-14T02:16:46;101444.48;;;16.03;48.55
78892;BME280;68368;51.728;5.248;2023-06-14T02:18:51;101445.38;;;16.02;48.68
78892;BME280;68368;51.728;5.248;2023-06-14T02:20:54;101446.96;;;16.04;48.67
78892;BME280;68368;51.728;5.248;2023-06-14T02:22:57;101451.27;;;16.03;48.52
78892;BME280;68368;51.728;5.248;2023-06-14T02:24:59;101444.84;;;16.02;48.63
78892;BME280;68368;51.728;5.248;2023-06-14T02:27:01;101444.14;;;16.01;48.74
78892;BME280;68368;51.728;5.248;2023-06-14T02:29:03;101451.38;;;15.99;48.96
78892;BME280;68368;51.728;5.248;2023-06-14T02:31:05;101453.58;;;15.96;48.85
78892;BME280;68368;51.728;5.248;2023-06-14T02:33:06;101452.67;;;15.96;48.80
78892;BME280;68368;51.728;5.248;2023-06-14T02:35:10;101454.82;;;15.97;48.91
78892;BME280;68368;51.728;5.248;2023-06-14T02:37:12;101456.86;;;15.94;49.10
78892;BME280;68368;51.728;5.248;2023-06-14T02:39:14;101460.67;;;15.92;49.22
78892;BME280;68368;51.728;5.248;2023-06-14T02:41:16;101460.17;;;15.90;49.43
78892;BME280;68368;51.728;5.248;2023-06-14T02:43:18;101459.13;;;15.88;49.35
78892;BME280;68368;51.728;5.248;2023-06-14T02:45:20;101462.60;;;15.85;49.54
78892;BME280;68368;51.728;5.248;2023-06-14T02:47:22;101459.09;;;15.82;49.47
78892;BME280;68368;51.728;5.248;2023-06-14T02:49:24;101454.86;;;15.79;49.38
78892;BME280;68368;51.728;5.248;2023-06-14T02:51:26;101456.65;;;15.79;49.66
78892;BME280;68368;51.728;5.248;2023-06-14T02:53:28;101458.83;;;15.77;49.53
78892;BME280;68368;51.728;5.248;2023-06-14T02:55:29;101459.06;;;15.76;49.78
78892;BME280;68368;51.728;5.248;2023-06-14T02:57:31;101462.69;;;15.73;49.82
78892;BME280;68368;51.728;5.248;2023-06-14T02:59:35;101464.50;;;15.72;49.91
78892;BME280;68368;51.728;5.248;2023-06-14T03:01:38;101461.50;;;15.70;50.06
78892;BME280;68368;51.728;5.248;2023-06-14T03:03:39;101464.59;;;15.67;50.26
78892;BME280;68368;51.728;5.248;2023-06-14T03:05:44;101463.21;;;15.63;50.21
78892;BME280;68368;51.728;5.248;2023-06-14T03:07:46;101464.15;;;15.61;50.22
78892;BME280;68368;51.728;5.248;2023-06-14T03:09:49;101466.52;;;15.60;50.53
78892;BME280;68368;51.728;5.248;2023-06-14T03:11:51;101473.70;;;15.58;50.44
78892;BME280;68368;51.728;5.248;2023-06-14T03:13:54;101471.75;;;15.57;50.69
78892;BME280;68368;51.728;5.248;2023-06-14T03:15:56;101476.74;;;15.58;50.59
78892;BME280;68368;51.728;5.248;2023-06-14T03:17:58;101479.81;;;15.57;50.58
78892;BME280;68368;51.728;5.248;2023-06-14T03:20:01;101475.70;;;15.56;50.83
78892;BME280;68368;51.728;5.248;2023-06-14T03:22:03;101479.66;;;15.55;50.83
78892;BME280;68368;51.728;5.248;2023-06-14T03:24:06;101478.77;;;15.55;50.95
78892;BME280;68368;51.728;5.248;2023-06-14T03:26:08;101481.27;;;15.55;50.77
78892;BME280;68368;51.728;5.248;2023-06-14T03:28:10;101482.70;;;15.56;50.88
78892;BME280;68368;51.728;5.248;2023-06-14T03:30:13;101485.34;;;15.57;50.80
78892;BME280;68368;51.728;5.248;2023-06-14T03:32:15;101484.92;;;15.61;50.64
78892;BME280;68368;51.728;5.248;2023-06-14T03:34:17;101484.07;;;15.68;50.77
78892;BME280;68368;51.728;5.248;2023-06-14T03:36:18;101480.21;;;15.82;50.32
78892;BME280;68368;51.728;5.248;2023-06-14T03:38:20;101483.79;;;15.99;49.93
78892;BME280;68368;51.728;5.248;2023-06-14T03:40:23;101486.96;;;16.16;49.54
78892;BME280;68368;51.728;5.248;2023-06-14T03:42:25;101485.58;;;16.38;49.34
78892;BME280;68368;51.728;5.248;2023-06-14T03:44:30;101487.81;;;16.63;48.70
78892;BME280;68368;51.728;5.248;2023-06-14T03:46:31;101484.48;;;16.90;48.22
78892;BME280;68368;51.728;5.248;2023-06-14T03:48:34;101489.59;;;17.07;47.67
78892;BME280;68368;51.728;5.248;2023-06-14T03:50:35;101488.65;;;17.03;47.66
78892;BME280;68368;51.728;5.248;2023-06-14T03:52:37;101487.90;;;16.97;47.82
78892;BME280;68368;51.728;5.248;2023-06-14T03:54:39;101488.95;;;16.97;47.73
78892;BME280;68368;51.728;5.248;2023-06-14T03:56:41;101491.67;;;17.17;47.37
78892;BME280;68368;51.728;5.248;2023-06-14T03:58:43;101490.20;;;17.57;46.77
78892;BME280;68368;51.728;5.248;2023-06-14T04:00:45;101487.20;;;18.05;45.88
78892;BME280;68368;51.728;5.248;2023-06-14T04:02:47;101486.90;;;18.54;44.89
78892;BME280;68368;51.728;5.248;2023-06-14T04:04:49;101492.27;;;18.98;43.82
78892;BME280;68368;51.728;5.248;2023-06-14T04:06:51;101495.21;;;19.42;42.95
78892;BME280;68368;51.728;5.248;2023-06-14T04:08:53;101494.27;;;19.83;42.06
78892;BME280;68368;51.728;5.248;2023-06-14T04:10:55;101497.52;;;20.24;41.01
78892;BME280;68368;51.728;5.248;2023-06-14T04:12:57;101495.85;;;20.61;39.96
78892;BME280;68368;51.728;5.248;2023-06-14T04:14:59;101499.23;;;20.97;39.23
78892;BME280;68368;51.728;5.248;2023-06-14T04:17:01;101500.61;;;21.32;38.33
78892;BME280;68368;51.728;5.248;2023-06-14T04:19:03;101503.29;;;21.61;37.38
78892;BME280;68368;51.728;5.248;2023-06-14T04:21:05;101502.19;;;21.93;37.45
78892;BME280;68368;51.728;5.248;2023-06-14T04:23:13;101506.02;;;22.27;36.24
78892;BME280;68368;51.728;5.248;2023-06-14T04:25:15;101507.06;;;22.54;35.50
78892;BME280;68368;51.728;5.248;2023-06-14T04:27:18;101507.65;;;22.78;35.24
78892;BME280;68368;51.728;5.248;2023-06-14T04:29:19;101508.89;;;23.04;35.00
78892;BME280;68368;51.728;5.248;2023-06-14T04:31:21;101510.98;;;23.33;34.39
78892;BME280;68368;51.728;5.248;2023-06-14T04:33:23;101509.64;;;23.62;34.01
78892;BME280;68368;51.728;5.248;2023-06-14T04:35:25;101508.69;;;23.93;33.45
78892;BME280;68368;51.728;5.248;2023-06-14T04:37:27;101509.70;;;24.21;33.02
78892;BME280;68368;51.728;5.248;2023-06-14T04:39:29;101510.23;;;24.50;32.56
78892;BME280;68368;51.728;5.248;2023-06-14T04:41:31;101510.15;;;24.79;31.91
78892;BME280;68368;51.728;5.248;2023-06-14T04:43:33;101514.69;;;25.10;31.55
78892;BME280;68368;51.728;5.248;2023-06-14T04:45:35;101514.64;;;25.47;30.94
78892;BME280;68368;51.728;5.248;2023-06-14T04:47:37;101517.73;;;25.79;30.40
78892;BME280;68368;51.728;5.248;2023-06-14T04:49:39;101514.51;;;26.04;29.80
78892;BME280;68368;51.728;5.248;2023-06-14T04:51:45;101510.31;;;26.24;29.59
78892;BME280;68368;51.728;5.248;2023-06-14T04:53:47;101510.75;;;26.56;29.35
78892;BME280;68368;51.728;5.248;2023-06-14T04:55:49;101510.52;;;26.90;28.89
78892;BME280;68368;51.728;5.248;2023-06-14T04:57:51;101513.05;;;27.19;28.34
78892;BME280;68368;51.728;5.248;2023-06-14T04:59:53;101513.77;;;27.51;28.04
78892;BME280;68368;51.728;5.248;2023-06-14T05:01:54;101513.47;;;27.78;27.47
78892;BME280;68368;51.728;5.248;2023-06-14T05:03:56;101516.27;;;28.06;27.01
78892;BME280;68368;51.728;5.248;2023-06-14T05:05:58;101516.48;;;28.37;27.01
78892;BME280;68368;51.728;5.248;2023-06-14T05:08:00;101516.18;;;28.56;26.32
78892;BME280;68368;51.728;5.248;2023-06-14T05:10:02;101510.63;;;28.77;26.16
78892;BME280;68368;51.728;5.248;2023-06-14T05:12:06;101517.67;;;28.97;25.65
78892;BME280;68368;51.728;5.248;2023-06-14T05:14:08;101516.84;;;29.13;25.11
78892;BME280;68368;51.728;5.248;2023-06-14T05:16:11;101520.41;;;29.16;25.02
78892;BME280;68368;51.728;5.248;2023-06-14T05:18:12;101519.60;;;29.38;25.21
78892;BME280;68368;51.728;5.248;2023-06-14T05:20:16;101524.13;;;29.67;24.93
78892;BME280;68368;51.728;5.248;2023-06-14T05:22:18;101523.70;;;29.79;24.47
78892;BME280;68368;51.728;5.248;2023-06-14T05:24:20;101523.53;;;29.90;24.23
78892;BME280;68368;51.728;5.248;2023-06-14T05:26:22;101520.26;;;30.01;24.14
78892;BME280;68368;51.728;5.248;2023-06-14T05:28:24;101520.30;;;30.16;23.59
78892;BME280;68368;51.728;5.248;2023-06-14T05:30:26;101526.48;;;30.35;23.74
78892;BME280;68368;51.728;5.248;2023-06-14T05:32:28;101525.32;;;30.47;23.51
78892;BME280;68368;51.728;5.248;2023-06-14T05:34:30;101527.89;;;30.69;23.34
78892;BME280;68368;51.728;5.248;2023-06-14T05:36:34;101526.62;;;30.79;22.79
78892;BME280;68368;51.728;5.248;2023-06-14T05:38:36;101530.40;;;30.95;23.12
78892;BME280;68368;51.728;5.248;2023-06-14T05:40:38;101530.29;;;31.05;22.44
78892;BME280;68368;51.728;5.248;2023-06-14T05:42:40;101533.20;;;31.21;22.51
78892;BME280;68368;51.728;5.248;2023-06-14T05:44:42;101532.95;;;31.15;22.06
78892;BME280;68368;51.728;5.248;2023-06-14T05:46:44;101536.27;;;31.10;22.30
78892;BME280;68368;51.728;5.248;2023-06-14T05:48:46;101534.75;;;31.39;22.24
78892;BME280;68368;51.728;5.248;2023-06-14T05:50:48;101538.11;;;31.74;21.90
78892;BME280;68368;51.728;5.248;2023-06-14T05:52:50;101540.47;;;32.01;21.60
78892;BME280;68368;51.728;5.248;2023-06-14T05:54:52;101534.41;;;32.21;21.42
78892;BME280;68368;51.728;5.248;2023-06-14T05:56:54;101538.53;;;32.33;21.04
78892;BME280;68368;51.728;5.248;2023-06-14T05:58:56;101538.96;;;32.26;21.03
78892;BME280;68368;51.728;5.248;2023-06-14T06:00:58;101542.20;;;32.23;21.19
78892;BME280;68368;51.728;5.248;2023-06-14T06:03:01;101543.25;;;32.41;20.92
78892;BME280;68368;51.728;5.248;2023-06-14T06:05:04;101546.73;;;32.58;20.95
78892;BME280;68368;51.728;5.248;2023-06-14T06:07:07;101549.05;;;32.61;20.46
78892;BME280;68368;51.728;5.248;2023-06-14T06:09:09;101549.29;;;32.64;20.65
78892;BME280;68368;51.728;5.248;2023-06-14T06:11:11;101548.70;;;32.68;20.54
78892;BME280;68368;51.728;5.248;2023-06-14T06:13:13;101551.20;;;32.81;20.61
78892;BME280;68368;51.728;5.248;2023-06-14T06:15:15;101551.95;;;32.93;20.31
78892;BME280;68368;51.728;5.248;2023-06-14T06:17:17;101555.63;;;33.03;20.49
78892;BME280;68368;51.728;5.248;2023-06-14T06:19:20;101558.88;;;33.15;20.17
78892;BME280;68368;51.728;5.248;2023-06-14T06:21:24;101563.36;;;33.20;20.28
78892;BME280;68368;51.728;5.248;2023-06-14T06:23:26;101561.07;;;33.17;20.16
78892;BME280;68368;51.728;5.248;2023-06-14T06:25:29;101559.15;;;33.32;20.33
78892;BME280;68368;51.728;5.248;2023-06-14T06:27:31;101559.88;;;33.68;20.21
78892;BME280;68368;51.728;5.248;2023-06-14T06:29:33;101559.23;;;33.96;19.64
78892;BME280;68368;51.728;5.248;2023-06-14T06:31:35;101565.38;;;34.27;19.75
78892;BME280;68368;51.728;5.248;2023-06-14T06:33:38;101561.29;;;34.28;18.93
78892;BME280;68368;51.728;5.248;2023-06-14T06:35:40;101565.95;;;34.38;19.18
78892;BME280;68368;51.728;5.248;2023-06-14T06:37:45;101564.63;;;34.66;18.90
78892;BME280;68368;51.728;5.248;2023-06-14T06:39:47;101565.96;;;34.84;18.42
78892;BME280;68368;51.728;5.248;2023-06-14T06:41:49;101566.67;;;35.06;18.34
78892;BME280;68368;51.728;5.248;2023-06-14T06:43:51;101570.89;;;35.17;17.70
78892;BME280;68368;51.728;5.248;2023-06-14T06:45:53;101572.70;;;35.23;17.37
78892;BME280;68368;51.728;5.248;2023-06-14T06:47:55;101576.70;;;35.16;17.64
78892;BME280;68368;51.728;5.248;2023-06-14T06:49:57;101575.06;;;35.27;17.64
78892;BME280;68368;51.728;5.248;2023-06-14T06:52:03;101584.44;;;35.56;17.78
78892;BME280;68368;51.728;5.248;2023-06-14T06:54:06;101583.51;;;35.52;16.86
78892;BME280;68368;51.728;5.248;2023-06-14T06:56:10;101583.02;;;35.25;16.79
78892;BME280;68368;51.728;5.248;2023-06-14T06:58:13;101587.23;;;35.11;17.09
78892;BME280;68368;51.728;5.248;2023-06-14T07:00:16;101585.66;;;35.12;17.24
78892;BME280;68368;51.728;5.248;2023-06-14T07:02:19;101590.94;;;35.12;17.19
78892;BME280;68368;51.728;5.248;2023-06-14T07:04:20;101589.86;;;35.14;17.34
78892;BME280;68368;51.728;5.248;2023-06-14T07:06:22;101593.77;;;35.28;17.26
78892;BME280;68368;51.728;5.248;2023-06-14T07:08:25;101592.16;;;35.29;16.92
78892;BME280;68368;51.728;5.248;2023-06-14T07:10:26;101593.36;;;35.18;17.03
78892;BME280;68368;51.728;5.248;2023-06-14T07:12:28;101597.55;;;35.17;17.31
78892;BME280;68368;51.728;5.248;2023-06-14T07:14:31;101596.30;;;35.32;17.51
78892;BME280;68368;51.728;5.248;2023-06-14T07:16:33;101606.23;;;35.57;17.11
78892;BME280;68368;51.728;5.248;2023-06-14T07:18:35;101603.21;;;35.64;16.95
78892;BME280;68368;51.728;5.248;2023-06-14T07:20:36;101609.08;;;35.73;17.03
78892;BME280;68368;51.728;5.248;2023-06-14T07:22:39;101609.98;;;35.85;17.34
78892;BME280;68368;51.728;5.248;2023-06-14T07:24:41;101607.20;;;35.97;17.10
78892;BME280;68368;51.728;5.248;2023-06-14T07:26:43;101607.55;;;36.01;16.82
78892;BME280;68368;51.728;5.248;2023-06-14T07:28:45;101613.70;;;35.99;16.81
78892;BME280;68368;51.728;5.248;2023-06-14T07:30:49;101612.63;;;35.85;16.95
78892;BME280;68368;51.728;5.248;2023-06-14T07:32:52;101621.10;;;35.87;16.78
78892;BME280;68368;51.728;5.248;2023-06-14T07:34:55;101620.48;;;35.70;16.58
78892;BME280;68368;51.728;5.248;2023-06-14T07:36:57;101622.79;;;35.65;17.07
78892;BME280;68368;51.728;5.248;2023-06-14T07:38:59;101623.32;;;35.66;17.37
78892;BME280;68368;51.728;5.248;2023-06-14T07:41:01;101624.42;;;35.74;17.11
78892;BME280;68368;51.728;5.248;2023-06-14T07:43:08;101623.60;;;35.59;16.72
78892;BME280;68368;51.728;5.248;2023-06-14T07:45:11;101622.25;;;35.38;16.96
78892;BME280;68368;51.728;5.248;2023-06-14T07:47:14;101627.46;;;35.18;16.95
78892;BME280;68368;51.728;5.248;2023-06-14T07:49:18;101628.51;;;34.97;17.07
78892;BME280;68368;51.728;5.248;2023-06-14T07:51:20;101632.02;;;34.91;17.03
78892;BME280;68368;51.728;5.248;2023-06-14T07:53:23;101633.99;;;34.77;17.28
78892;BME280;68368;51.728;5.248;2023-06-14T07:55:25;101636.48;;;34.71;17.48
78892;BME280;68368;51.728;5.248;2023-06-14T07:57:27;101639.27;;;34.56;17.21
78892;BME280;68368;51.728;5.248;2023-06-14T07:59:29;101636.56;;;34.40;17.44
78892;BME280;68368;51.728;5.248;2023-06-14T08:01:31;101637.88;;;34.27;17.50
78892;BME280;68368;51.728;5.248;2023-06-14T08:03:34;101635.20;;;34.18;17.61
78892;BME280;68368;51.728;5.248;2023-06-14T08:05:36;101639.34;;;34.00;17.81
78892;BME280;68368;51.728;5.248;2023-06-14T08:07:38;101643.83;;;33.92;17.92
78892;BME280;68368;51.728;5.248;2023-06-14T08:09:40;101646.56;;;33.79;18.12
78892;BME280;68368;51.728;5.248;2023-06-14T08:11:45;101641.77;;;33.62;18.31
78892;BME280;68368;51.728;5.248;2023-06-14T08:13:47;101643.11;;;33.63;18.47
78892;BME280;68368;51.728;5.248;2023-06-14T08:15:49;101640.11;;;33.42;18.05
78892;BME280;68368;51.728;5.248;2023-06-14T08:17:51;101636.83;;;33.24;18.17
78892;BME280;68368;51.728;5.248;2023-06-14T08:19:53;101636.81;;;33.10;18.76
78892;BME280;68368;51.728;5.248;2023-06-14T08:21:55;101640.11;;;33.18;19.03
78892;BME280;68368;51.728;5.248;2023-06-14T08:23:59;101636.36;;;33.11;18.96
78892;BME280;68368;51.728;5.248;2023-06-14T08:26:01;101637.78;;;33.04;18.89
78892;BME280;68368;51.728;5.248;2023-06-14T08:28:03;101634.34;;;33.05;19.03
78892;BME280;68368;51.728;5.248;2023-06-14T08:30:08;101635.34;;;33.18;19.36
78892;BME280;68368;51.728;5.248;2023-06-14T08:32:10;101635.33;;;33.14;18.55
78892;BME280;68368;51.728;5.248;2023-06-14T08:34:12;101639.70;;;32.97;18.83
78892;BME280;68368;51.728;5.248;2023-06-14T08:36:14;101634.91;;;32.83;19.04
78892;BME280;68368;51.728;5.248;2023-06-14T08:38:18;101630.36;;;32.84;19.56
78892;BME280;68368;51.728;5.248;2023-06-14T08:40:22;101635.59;;;32.83;19.31
78892;BME280;68368;51.728;5.248;2023-06-14T08:42:25;101645.27;;;32.60;19.24
78892;BME280;68368;51.728;5.248;2023-06-14T08:44:27;101646.06;;;32.47;19.53
78892;BME280;68368;51.728;5.248;2023-06-14T08:46:32;101642.84;;;32.48;19.61
78892;BME280;68368;51.728;5.248;2023-06-14T08:48:35;101643.67;;;32.47;19.52
78892;BME280;68368;51.728;5.248;2023-06-14T08:50:37;101647.30;;;32.39;19.41
78892;BME280;68368;51.728;5.248;2023-06-14T08:52:45;101646.60;;;32.38;19.74
78892;BME280;68368;51.728;5.248;2023-06-14T08:54:49;101642.89;;;32.39;19.31
78892;BME280;68368;51.728;5.248;2023-06-14T08:56:51;101644.20;;;32.33;19.14
78892;BME280;68368;51.728;5.248;2023-06-14T08:58:54;101645.65;;;32.08;19.16
78892;BME280;68368;51.728;5.248;2023-06-14T09:00:57;101644.70;;;31.96;19.70
78892;BME280;68368;51.728;5.248;2023-06-14T09:03:01;101642.74;;;32.01;19.84
78892;BME280;68368;51.728;5.248;2023-06-14T09:05:04;101641.73;;;31.94;19.76
78892;BME280;68368;51.728;5.248;2023-06-14T09:07:06;101644.52;;;31.96;19.65
78892;BME280;68368;51.728;5.248;2023-06-14T09:09:10;101638.77;;;31.90;19.74
78892;BME280;68368;51.728;5.248;2023-06-14T09:11:16;101642.39;;;31.97;19.91
78892;BME280;68368;51.728;5.248;2023-06-14T09:13:18;101644.35;;;31.98;19.24
78892;BME280;68368;51.728;5.248;2023-06-14T09:15:22;101641.84;;;31.95;18.90
78892;BME280;68368;51.728;5.248;2023-06-14T09:17:24;101646.95;;;31.95;18.93
78892;BME280;68368;51.728;5.248;2023-06-14T09:19:26;101640.11;;;31.81;18.65
78892;BME280;68368;51.728;5.248;2023-06-14T09:21:34;101644.31;;;31.69;17.90
78892;BME280;68368;51.728;5.248;2023-06-14T09:23:37;101641.44;;;31.61;17.46
78892;BME280;68368;51.728;5.248;2023-06-14T09:25:45;101637.45;;;31.44;17.91
78892;BME280;68368;51.728;5.248;2023-06-14T09:27:48;101646.45;;;31.33;18.12
78892;BME280;68368;51.728;5.248;2023-06-14T09:29:50;101640.19;;;31.18;18.56
78892;BME280;68368;51.728;5.248;2023-06-14T09:31:53;101650.89;;;31.06;18.31
78892;BME280;68368;51.728;5.248;2023-06-14T09:33:54;101658.79;;;30.86;18.14
78892;BME280;68368;51.728;5.248;2023-06-14T09:35:56;101654.81;;;30.67;18.44
78892;BME280;68368;51.728;5.248;2023-06-14T09:37:58;101646.22;;;30.63;19.00
78892;BME280;68368;51.728;5.248;2023-06-14T09:40:00;101651.95;;;30.83;19.11
78892;BME280;68368;51.728;5.248;2023-06-14T09:42:17;101650.19;;;30.79;18.31
78892;BME280;68368;51.728;5.248;2023-06-14T09:44:21;101651.05;;;30.71;18.12
78892;BME280;68368;51.728;5.248;2023-06-14T09:46:23;101654.86;;;30.60;17.90
78892;BME280;68368;51.728;5.248;2023-06-14T09:48:25;101654.98;;;30.54;18.45
78892;BME280;68368;51.728;5.248;2023-06-14T09:50:27;101655.14;;;30.48;18.70
78892;BME280;68368;51.728;5.248;2023-06-14T09:52:30;101647.20;;;30.35;18.52
78892;BME280;68368;51.728;5.248;2023-06-14T09:54:36;101656.69;;;30.31;18.38
78892;BME280;68368;51.728;5.248;2023-06-14T09:56:45;101653.98;;;30.16;18.56
78892;BME280;68368;51.728;5.248;2023-06-14T09:58:50;101655.05;;;30.10;18.81
78892;BME280;68368;51.728;5.248;2023-06-14T10:00:55;101655.60;;;30.12;18.74
78892;BME280;68368;51.728;5.248;2023-06-14T10:03:03;101653.41;;;30.12;18.74
78892;BME280;68368;51.728;5.248;2023-06-14T10:05:12;101655.06;;;30.26;19.06
78892;BME280;68368;51.728;5.248;2023-06-14T10:07:20;101654.86;;;30.35;19.37
78892;BME280;68368;51.728;5.248;2023-06-14T10:09:22;101656.08;;;30.25;18.98
78892;BME280;68368;51.728;5.248;2023-06-14T10:11:27;101656.45;;;30.13;18.99
78892;BME280;68368;51.728;5.248;2023-06-14T10:13:32;101652.71;;;30.12;18.95
78892;BME280;68368;51.728;5.248;2023-06-14T10:15:41;101646.00;;;30.09;18.94
78892;BME280;68368;51.728;5.248;2023-06-14T10:17:49;101654.64;;;30.27;19.15
78892;BME280;68368;51.728;5.248;2023-06-14T10:19:55;101652.12;;;30.45;18.77
78892;BME280;68368;51.728;5.248;2023-06-14T10:22:02;101649.07;;;30.62;19.17
78892;BME280;68368;51.728;5.248;2023-06-14T10:24:13;101651.59;;;30.82;18.63
78892;BME280;68368;51.728;5.248;2023-06-14T10:26:23;101647.65;;;30.99;18.36
78892;BME280;68368;51.728;5.248;2023-06-14T10:28:25;101641.79;;;30.88;18.48
78892;BME280;68368;51.728;5.248;2023-06-14T10:30:27;101647.81;;;30.70;18.73
78892;BME280;68368;51.728;5.248;2023-06-14T10:32:30;101642.88;;;30.59;19.20
78892;BME280;68368;51.728;5.248;2023-06-14T10:34:33;101646.23;;;30.54;18.92
78892;BME280;68368;51.728;5.248;2023-06-14T10:36:35;101645.52;;;30.54;19.21
78892;BME280;68368;51.728;5.248;2023-06-14T10:38:38;101646.84;;;30.60;19.65
78892;BME280;68368;51.728;5.248;2023-06-14T10:40:40;101649.44;;;30.66;19.65
78892;BME280;68368;51.728;5.248;2023-06-14T10:42:51;101655.95;;;30.49;19.08